Time;durP1;ratioP1;P1;durP2;ratioP2;P2;SDS_P1;SDS_P2;PMS_P1;PMS_P2;Temp;Humidity;BMP_temperature;BMP_pressure;BME280_temperature;BME280_humidity;BME280_pressure;Samples;Min_cycle;Max_cycle;Signal;HPM_P1;HPM_P2
2021/12/31 00:02:21;;;;;;;12.98;2.25;;;12.80;99.90;;;;;;4996050;28;20439;-65
2021/12/31 00:04:47;;;;;;;12.52;2.53;;;12.90;99.90;;;;;;4960228;28;20047;-65
2021/12/31 00:07:13;;;;;;;11.60;2.80;;;12.90;99.90;;;;;;4961360;28;20034;-65
2021/12/31 00:09:39;;;;;;;14.23;2.22;;;12.90;99.90;;;;;;4961821;28;20042;-65
2021/12/31 00:12:07;;;;;;;10.07;2.42;;;12.90;99.90;;;;;;4961516;28;20047;-66
2021/12/31 00:14:34;;;;;;;16.55;2.78;;;13.00;99.90;;;;;;4961552;28;20043;-65
2021/12/31 00:16:59;;;;;;;16.35;2.95;;;12.90;99.90;;;;;;4961892;28;20042;-64
2021/12/31 00:19:29;;;;;;;12.95;2.65;;;12.80;99.90;;;;;;4978677;28;20057;-65
2021/12/31 00:21:54;;;;;;;15.18;2.58;;;12.80;99.90;;;;;;4961886;28;20065;-65
2021/12/31 00:24:22;;;;;;;18.45;3.88;;;12.80;99.90;;;;;;4978223;28;20056;-65
2021/12/31 00:26:47;;;;;;;17.33;2.88;;;12.90;99.90;;;;;;4961417;28;20047;-65
2021/12/31 00:29:13;;;;;;;9.30;2.65;;;12.90;99.90;;;;;;4977606;28;20035;-65
2021/12/31 00:31:38;;;;;;;19.70;3.63;;;12.60;99.90;;;;;;4961627;28;20050;-66
2021/12/31 00:34:04;;;;;;;11.98;2.78;;;12.90;99.90;;;;;;4978750;28;20122;-65
2021/12/31 00:36:41;;;;;;;15.63;2.97;;;12.80;99.90;;;;;;4977466;28;20093;-65
2021/12/31 00:39:07;;;;;;;11.95;2.50;;;13.10;99.90;;;;;;4945110;28;20519;-65
2021/12/31 00:41:32;;;;;;;10.13;2.45;;;12.80;99.90;;;;;;4976749;28;20058;-65
2021/12/31 00:43:59;;;;;;;19.42;3.88;;;12.90;99.90;;;;;;4960908;28;20039;-65
2021/12/31 00:46:24;;;;;;;14.77;3.58;;;12.80;99.90;;;;;;4979034;28;20134;-65
2021/12/31 00:48:50;;;;;;;8.93;2.20;;;14.80;99.90;;;;;;4979184;28;20081;-65
2021/12/31 00:51:15;;;;;;;18.30;4.07;;;12.70;99.90;;;;;;4976813;28;20077;-65
2021/12/31 00:53:41;;;;;;;13.98;3.03;;;12.60;99.90;;;;;;4980391;28;20070;-65
2021/12/31 00:56:06;;;;;;;11.10;3.33;;;12.80;99.90;;;;;;4997674;28;20034;-65
2021/12/31 00:58:32;;;;;;;12.57;2.70;;;12.70;99.90;;;;;;4979789;28;20077;-65
2021/12/31 01:00:58;;;;;;;13.68;3.03;;;13.00;99.90;;;;;;4998131;28;20042;-66
2021/12/31 01:03:23;;;;;;;14.52;2.97;;;12.70;99.90;;;;;;4996156;28;20051;-66
2021/12/31 01:05:49;;;;;;;12.43;2.85;;;12.80;99.90;;;;;;4995934;28;20047;-66
2021/12/31 01:08:14;;;;;;;16.67;3.08;;;12.70;99.90;;;;;;4996260;28;20081;-66
2021/12/31 01:10:40;;;;;;;20.05;3.65;;;14.40;99.90;;;;;;4997749;28;20520;-66
2021/12/31 01:13:10;;;;;;;16.20;3.60;;;12.70;99.90;;;;;;4995535;28;20056;-67
2021/12/31 01:15:40;;;;;;;13.68;3.05;;;13.40;99.90;;;;;;4995835;28;20061;-66
2021/12/31 01:20:35;;;;;;;11.57;2.95;;;12.70;99.90;;;;;;4996106;28;20085;-66
2021/12/31 01:23:01;;;;;;;19.33;3.47;;;12.50;99.90;;;;;;4995557;28;20046;-66
2021/12/31 01:25:27;;;;;;;17.98;3.65;;;;;;;;;;4997336;28;20042;-66
2021/12/31 01:27:53;;;;;;;10.50;3.05;;;12.70;99.90;;;;;;4995048;28;20048;-66
2021/12/31 01:30:19;;;;;;;17.65;3.38;;;12.60;99.90;;;;;;4997072;28;20070;-65
2021/12/31 01:32:46;;;;;;;13.77;3.10;;;12.60;99.90;;;;;;4996345;28;20057;-65
2021/12/31 01:35:12;;;;;;;13.63;3.03;;;12.60;99.90;;;;;;4986554;28;20122;-68
2021/12/31 01:37:38;;;;;;;10.15;2.85;;;12.70;99.90;;;;;;4976423;28;20085;-65
2021/12/31 01:40:05;;;;;;;16.77;3.30;;;12.60;99.90;;;;;;4987431;28;20042;-65
2021/12/31 01:42:33;;;;;;;14.95;3.45;;;12.50;99.90;;;;;;4963294;28;20065;-65
2021/12/31 01:45:16;;;;;;;14.52;3.42;;;12.40;99.90;;;;;;4995912;28;20053;-65
2021/12/31 01:48:28;;;;;;;13.07;3.17;;;12.30;99.90;;;;;;4997680;28;20054;-66
2021/12/31 01:50:31;;;;;;;16.98;3.15;;;;;;;;;;4973671;28;20496;-66
2021/12/31 01:52:58;;;;;;;12.85;3.20;;;12.60;99.90;;;;;;4979103;28;20050;-66
2021/12/31 01:55:29;;;;;;;12.90;3.28;;;12.60;99.90;;;;;;4995742;28;20396;-66
2021/12/31 01:57:55;;;;;;;14.20;2.90;;;;;;;;;;4995906;28;20038;-66
2021/12/31 02:00:22;;;;;;;11.65;4.20;;;12.40;99.90;;;;;;4981527;28;20052;-66
2021/12/31 02:02:48;;;;;;;11.00;3.20;;;12.60;99.90;;;;;;4962959;28;20043;-66
2021/12/31 02:05:15;;;;;;;13.60;3.13;;;;;;;;;;4996664;28;20050;-66
2021/12/31 02:07:41;;;;;;;16.05;2.97;;;12.60;99.90;;;;;;4979832;28;20057;-66
2021/12/31 02:10:08;;;;;;;12.48;2.75;;;12.70;99.90;;;;;;4978931;28;20049;-66
2021/12/31 02:12:38;;;;;;;10.05;2.80;;;12.60;99.90;;;;;;4978826;28;20057;-66
2021/12/31 02:15:04;;;;;;;9.45;2.60;;;12.60;99.90;;;;;;4962527;28;20043;-66
2021/12/31 02:17:29;;;;;;;15.25;3.67;;;12.70;99.90;;;;;;4995814;28;20065;-66
2021/12/31 02:20:03;;;;;;;8.77;2.78;;;12.80;99.90;;;;;;4996027;28;20038;-66
2021/12/31 02:22:29;;;;;;;10.48;2.83;;;12.60;99.90;;;;;;4995955;28;20052;-67
2021/12/31 02:24:56;;;;;;;10.80;2.90;;;12.80;99.90;;;;;;4995165;28;20050;-66
2021/12/31 02:27:24;;;;;;;14.93;2.90;;;12.80;99.90;;;;;;4977625;28;20114;-66
2021/12/31 02:29:50;;;;;;;14.82;2.40;;;12.80;99.90;;;;;;4959967;28;20043;-66
2021/12/31 02:32:15;;;;;;;10.27;2.53;;;12.90;99.90;;;;;;4960098;28;20049;-66
2021/12/31 02:34:41;;;;;;;12.35;3.13;;;12.80;99.90;;;;;;4960384;28;20049;-66
2021/12/31 02:37:07;;;;;;;11.07;3.15;;;13.00;99.90;;;;;;4977688;28;20544;-67
2021/12/31 02:39:34;;;;;;;10.65;3.13;;;12.80;99.90;;;;;;4960444;28;20788;-67
2021/12/31 02:42:00;;;;;;;6.38;2.35;;;12.80;99.90;;;;;;4975685;28;20058;-66
2021/12/31 02:44:25;;;;;;;9.10;3.95;;;12.90;99.90;;;;;;4976505;28;20042;-66
2021/12/31 02:46:51;;;;;;;10.57;2.65;;;13.00;99.90;;;;;;4959341;28;20035;-66
2021/12/31 02:49:22;;;;;;;7.65;2.90;;;13.10;99.90;;;;;;4958892;28;20498;-66
2021/12/31 02:51:48;;;;;;;9.35;2.63;;;13.00;99.90;;;;;;4984486;28;20084;-67
2021/12/31 02:54:15;;;;;;;8.18;2.85;;;12.90;99.90;;;;;;4996714;28;20042;-66
2021/12/31 02:56:41;;;;;;;9.80;2.88;;;13.00;99.90;;;;;;4994894;28;20054;-66
2021/12/31 02:59:09;;;;;;;5.20;2.28;;;;;;;;;;4995535;28;20477;-67
2021/12/31 03:01:35;;;;;;;8.02;2.30;;;12.90;99.90;;;;;;4979601;28;20077;-66
2021/12/31 03:04:03;;;;;;;5.82;2.78;;;13.00;99.90;;;;;;4994959;28;20038;-66
2021/12/31 03:06:30;;;;;;;5.35;2.67;;;12.90;99.90;;;;;;4995252;28;20065;-66
2021/12/31 03:08:57;;;;;;;9.13;3.05;;;12.80;99.90;;;;;;4993976;28;20485;-66
2021/12/31 03:11:24;;;;;;;8.90;3.15;;;12.90;99.90;;;;;;4994959;28;20046;-66
2021/12/31 03:13:54;;;;;;;6.93;2.53;;;13.00;99.90;;;;;;4995701;28;20058;-67
2021/12/31 03:16:21;;;;;;;9.25;3.38;;;13.00;99.90;;;;;;4994932;28;20436;-66
2021/12/31 03:18:48;;;;;;;11.05;3.78;;;13.00;99.90;;;;;;4995114;28;20043;-67
2021/12/31 03:21:21;;;;;;;7.28;2.42;;;13.10;99.90;;;;;;4995059;28;20038;-67
2021/12/31 03:23:48;;;;;;;6.60;2.30;;;13.20;99.90;;;;;;4978923;28;20069;-66
2021/12/31 03:26:14;;;;;;;6.55;2.45;;;13.00;99.90;;;;;;4994038;28;20404;-67
2021/12/31 03:28:40;;;;;;;5.70;2.00;;;;;;;;;;4995238;28;20045;-66
2021/12/31 03:31:05;;;;;;;12.88;3.03;;;13.20;99.90;;;;;;4995111;28;20459;-66
2021/12/31 03:33:31;;;;;;;7.93;2.47;;;;;;;;;;4978529;28;20039;-66
2021/12/31 03:35:57;;;;;;;10.48;2.28;;;13.20;99.90;;;;;;4994151;28;20054;-67
2021/12/31 03:38:22;;;;;;;12.07;2.47;;;13.00;99.90;;;;;;4994802;28;20540;-67
2021/12/31 03:40:48;;;;;;;9.70;2.50;;;13.10;99.90;;;;;;4999884;28;20046;-66
2021/12/31 03:43:14;;;;;;;10.80;2.38;;;13.20;99.90;;;;;;4999727;28;20057;-66
2021/12/31 03:45:40;;;;;;;4.65;2.08;;;13.10;99.90;;;;;;4999184;28;20054;-66
2021/12/31 03:48:06;;;;;;;6.60;2.47;;;13.20;99.90;;;;;;4966175;28;20038;-66
2021/12/31 03:50:32;;;;;;;10.82;2.20;;;13.10;99.90;;;;;;4999234;28;20081;-66
2021/12/31 03:52:58;;;;;;;6.47;2.20;;;13.20;99.90;;;;;;4998596;28;20034;-66
2021/12/31 03:55:24;;;;;;;7.13;2.42;;;13.10;99.90;;;;;;4982488;28;20050;-67
2021/12/31 03:57:49;;;;;;;8.35;2.63;;;13.10;99.90;;;;;;4998216;28;20100;-67
2021/12/31 04:00:15;;;;;;;8.85;2.72;;;12.90;99.90;;;;;;4999292;28;20097;-67
2021/12/31 04:02:41;;;;;;;9.30;3.10;;;13.00;99.90;;;;;;4982244;28;20046;-67
2021/12/31 04:05:07;;;;;;;7.53;2.33;;;13.10;99.90;;;;;;4998291;28;20042;-67
2021/12/31 04:07:33;;;;;;;9.15;3.15;;;13.10;99.90;;;;;;4999961;28;20042;-68
2021/12/31 04:09:59;;;;;;;9.70;2.42;;;13.20;99.90;;;;;;4999353;28;20096;-67
2021/12/31 04:12:24;;;;;;;5.45;2.45;;;13.20;99.90;;;;;;4997605;28;20063;-67
2021/12/31 04:14:50;;;;;;;6.78;2.33;;;;;;;;;;4981563;28;20049;-67
2021/12/31 04:17:16;;;;;;;5.93;2.25;;;13.20;99.90;;;;;;4997624;28;20220;-67
2021/12/31 04:19:42;;;;;;;7.40;3.00;;;13.10;99.90;;;;;;4998928;28;20035;-66
2021/12/31 04:22:11;;;;;;;9.77;2.50;;;13.20;99.90;;;;;;4998446;28;20141;-68
2021/12/31 04:27:09;;;;;;;4.38;2.50;;;13.10;99.90;;;;;;4998063;28;20133;-66
2021/12/31 04:29:35;;;;;;;6.40;2.50;;;13.20;99.90;;;;;;4981705;28;20563;-66
2021/12/31 04:32:01;;;;;;;7.03;2.30;;;13.00;99.90;;;;;;4981493;28;20440;-66
2021/12/31 04:34:28;;;;;;;7.88;2.95;;;13.00;99.90;;;;;;4980628;28;20503;-66
2021/12/31 04:36:53;;;;;;;5.88;2.63;;;13.10;99.90;;;;;;4998766;28;20077;-66
2021/12/31 04:39:19;;;;;;;9.70;2.53;;;13.20;99.90;;;;;;4999025;28;20412;-66
2021/12/31 04:41:45;;;;;;;6.97;3.05;;;;;;;;;;4998410;28;20501;-66
2021/12/31 04:44:11;;;;;;;8.88;2.95;;;12.90;99.90;;;;;;4997779;28;20116;-66
2021/12/31 04:46:37;;;;;;;6.05;2.65;;;13.00;99.90;;;;;;4996795;28;20042;-66
2021/12/31 04:49:03;;;;;;;10.95;3.15;;;13.10;99.90;;;;;;4998296;28;20038;-67
2021/12/31 04:51:29;;;;;;;10.25;3.13;;;13.20;99.90;;;;;;4996406;28;20042;-66
2021/12/31 04:53:54;;;;;;;5.82;4.00;;;13.20;99.90;;;;;;4997883;28;20065;-66
2021/12/31 04:56:20;;;;;;;6.28;3.28;;;13.20;99.90;;;;;;4995472;28;20515;-66
2021/12/31 04:58:46;;;;;;;6.88;3.42;;;13.20;99.90;;;;;;4976202;28;20404;-66
2021/12/31 05:01:11;;;;;;;8.00;4.38;;;13.10;99.90;;;;;;4957796;28;20481;-66
2021/12/31 05:03:37;;;;;;;9.38;4.22;;;13.20;99.90;;;;;;4983161;28;20575;-66
2021/12/31 05:06:02;;;;;;;8.70;3.83;;;13.10;99.90;;;;;;4977166;28;20039;-69
2021/12/31 05:08:28;;;;;;;10.75;3.78;;;13.10;99.90;;;;;;4957748;28;20492;-69
2021/12/31 05:10:54;;;;;;;12.45;3.70;;;13.10;99.90;;;;;;4974692;28;20064;-69
2021/12/31 05:13:20;;;;;;;6.00;3.53;;;13.10;99.90;;;;;;4957097;28;20054;-69
2021/12/31 05:15:48;;;;;;;8.82;3.67;;;;;;;;;;4956858;28;20122;-69
2021/12/31 05:18:14;;;;;;;4.72;3.13;;;13.20;99.90;;;;;;4957241;28;20117;-69
2021/12/31 05:20:40;;;;;;;6.93;3.28;;;13.20;99.90;;;;;;4974663;28;20121;-68
2021/12/31 05:23:06;;;;;;;7.25;3.30;;;13.20;99.90;;;;;;4974436;28;20372;-69
2021/12/31 05:25:32;;;;;;;10.75;3.35;;;13.30;99.90;;;;;;4974470;28;20038;-68
2021/12/31 05:27:58;;;;;;;7.55;3.65;;;13.10;99.90;;;;;;4957170;28;20455;-69
2021/12/31 05:30:25;;;;;;;6.22;2.97;;;13.20;99.90;;;;;;4975756;28;20118;-69
2021/12/31 05:32:51;;;;;;;6.18;2.70;;;;;;;;;;4983473;28;20374;-69
2021/12/31 05:35:17;;;;;;;9.13;2.97;;;13.10;99.90;;;;;;4991094;28;20038;-69
2021/12/31 05:37:43;;;;;;;10.85;3.17;;;;;;;;;;4987209;28;20038;-68
2021/12/31 05:40:09;;;;;;;8.40;2.80;;;13.10;99.90;;;;;;4992700;28;20369;-68
2021/12/31 05:42:35;;;;;;;4.88;2.50;;;;;;;;;;4958676;28;20101;-68
2021/12/31 05:45:01;;;;;;;9.80;2.45;;;;;;;;;;4988495;28;20049;-70
2021/12/31 05:47:27;;;;;;;7.13;2.95;;;13.10;99.90;;;;;;4962960;28;20047;-70
2021/12/31 05:49:53;;;;;;;6.60;2.97;;;13.10;99.90;;;;;;4982627;28;20038;-69
2021/12/31 05:52:18;;;;;;;6.00;2.67;;;13.00;99.90;;;;;;4975849;28;20042;-69
2021/12/31 05:54:44;;;;;;;7.50;2.65;;;;;;;;;;4972213;28;20501;-69
2021/12/31 05:57:10;;;;;;;7.75;3.17;;;13.00;99.90;;;;;;4983318;28;20065;-69
2021/12/31 05:59:35;;;;;;;5.75;2.90;;;13.00;99.90;;;;;;4987086;28;20042;-69
2021/12/31 06:02:01;;;;;;;3.38;2.20;;;12.90;99.90;;;;;;4957400;28;20042;-69
2021/12/31 06:04:26;;;;;;;4.78;2.47;;;12.90;99.90;;;;;;4964714;28;20050;-69
2021/12/31 06:06:52;;;;;;;9.23;2.95;;;12.90;99.90;;;;;;4984782;28;20047;-69
2021/12/31 06:09:18;;;;;;;4.90;2.35;;;;;;;;;;4984470;28;20042;-70
2021/12/31 06:11:44;;;;;;;4.78;2.20;;;;;;;;;;4964954;28;20054;-69
2021/12/31 06:14:10;;;;;;;7.68;2.50;;;13.00;99.90;;;;;;4981828;28;20061;-69
2021/12/31 06:16:41;;;;;;;6.28;2.55;;;13.00;99.90;;;;;;4985366;28;20034;-69
2021/12/31 06:19:11;;;;;;;3.30;2.50;;;13.10;99.90;;;;;;4956946;28;20046;-69
2021/12/31 06:21:39;;;;;;;4.90;2.67;;;13.10;99.90;;;;;;4966150;28;20042;-70
2021/12/31 06:24:06;;;;;;;4.85;2.10;;;13.20;99.90;;;;;;4982570;28;20440;-69
2021/12/31 06:26:32;;;;;;;4.97;2.05;;;13.10;99.90;;;;;;4982458;28;20126;-69
2021/12/31 06:28:58;;;;;;;8.05;2.45;;;13.00;99.90;;;;;;4976017;28;20039;-69
2021/12/31 06:31:24;;;;;;;4.78;2.35;;;13.00;99.90;;;;;;4982298;28;20038;-69
2021/12/31 06:33:50;;;;;;;6.20;1.77;;;13.00;99.90;;;;;;4988469;28;20157;-69
2021/12/31 06:36:17;;;;;;;5.90;2.08;;;13.10;99.90;;;;;;4991102;28;20489;-68
2021/12/31 06:38:43;;;;;;;6.95;2.35;;;;;;;;;;4988893;28;20038;-69
2021/12/31 06:41:09;;;;;;;5.68;1.75;;;;;;;;;;4981603;28;20058;-70
2021/12/31 06:43:35;;;;;;;6.28;1.95;;;;;;;;;;4985260;28;20046;-69
2021/12/31 06:46:01;;;;;;;6.03;2.45;;;;;;;;;;4985025;28;20096;-70
2021/12/31 06:48:27;;;;;;;4.90;2.00;;;;;;;;;;4985622;28;20054;-69
2021/12/31 06:50:53;;;;;;;7.30;2.10;;;12.90;99.90;;;;;;4991576;28;20078;-69
2021/12/31 06:53:18;;;;;;;8.27;2.30;;;12.90;99.90;;;;;;4991231;28;20082;-69
2021/12/31 06:55:44;;;;;;;3.33;1.80;;;12.90;99.90;;;;;;4981446;28;20500;-69
2021/12/31 06:58:09;;;;;;;5.82;2.28;;;12.70;99.90;;;;;;4954846;28;20043;-69
2021/12/31 07:00:35;;;;;;;6.45;2.40;;;12.80;99.90;;;;;;4955340;28;20093;-69
2021/12/31 07:03:12;;;;;;;5.78;1.65;;;12.90;99.90;;;;;;4978876;28;20038;-69
2021/12/31 07:05:40;;;;;;;5.18;1.90;;;12.90;99.90;;;;;;4991627;28;20043;-69
2021/12/31 07:08:06;;;;;;;7.85;2.20;;;13.00;99.90;;;;;;4991388;28;20034;-68
2021/12/31 07:10:32;;;;;;;3.60;2.25;;;12.90;99.90;;;;;;4990331;28;20053;-68
2021/12/31 07:12:59;;;;;;;6.75;2.38;;;12.80;99.90;;;;;;4973888;28;20088;-69
2021/12/31 07:15:25;;;;;;;5.45;2.47;;;;;;;;;;4993326;28;20563;-69
2021/12/31 07:17:51;;;;;;;4.70;2.17;;;12.70;99.90;;;;;;4967874;28;20042;-69
2021/12/31 07:20:17;;;;;;;4.20;2.20;;;12.70;99.90;;;;;;4977893;28;20045;-69
2021/12/31 07:22:43;;;;;;;4.60;2.20;;;;;;;;;;4974742;28;20047;-69
2021/12/31 07:25:09;;;;;;;6.07;2.53;;;;;;;;;;4975695;28;20027;-69
2021/12/31 07:27:35;;;;;;;5.03;2.28;;;12.60;99.90;;;;;;4991908;28;20035;-69
2021/12/31 07:30:00;;;;;;;5.97;2.20;;;12.50;99.90;;;;;;4987189;28;20510;-69
2021/12/31 07:32:27;;;;;;;6.22;2.05;;;;;;;;;;4990887;28;20042;-69
2021/12/31 07:34:52;;;;;;;8.77;2.75;;;12.50;99.90;;;;;;4986030;28;20043;-68
2021/12/31 07:37:18;;;;;;;5.35;2.13;;;;;;;;;;4988751;28;20038;-69
2021/12/31 07:39:48;;;;;;;6.57;2.83;;;;;;;;;;4970513;28;20038;-69
2021/12/31 07:42:15;;;;;;;8.93;2.30;;;;;;;;;;4987497;28;20096;-69
2021/12/31 07:44:40;;;;;;;5.20;2.70;;;12.70;99.90;;;;;;4985059;28;20046;-69
2021/12/31 07:47:06;;;;;;;5.20;2.38;;;;;;;;;;4988912;28;20337;-68
2021/12/31 07:49:32;;;;;;;5.15;2.35;;;12.40;99.90;;;;;;4973550;28;20045;-68
2021/12/31 07:51:58;;;;;;;5.18;2.63;;;12.40;99.90;;;;;;4973352;28;20030;-69
2021/12/31 07:54:24;;;;;;;5.97;2.42;;;12.50;99.90;;;;;;4988886;28;20038;-69
2021/12/31 07:56:49;;;;;;;6.25;2.85;;;12.60;99.90;;;;;;4990289;28;21916;-69
2021/12/31 07:59:15;;;;;;;4.57;2.55;;;12.60;99.90;;;;;;4989031;28;20066;-69
2021/12/31 08:01:40;;;;;;;5.70;2.38;;;12.60;99.90;;;;;;4988805;28;20031;-69
2021/12/31 08:04:06;;;;;;;3.05;2.33;;;;;;;;;;4974977;28;20050;-69
2021/12/31 08:06:32;;;;;;;7.10;2.65;;;12.70;99.90;;;;;;4982130;28;20552;-69
2021/12/31 08:08:58;;;;;;;7.47;2.90;;;;;;;;;;4977097;28;20122;-69
2021/12/31 08:11:24;;;;;;;7.15;2.50;;;;;;;;;;4981540;28;20397;-68
2021/12/31 08:13:49;;;;;;;5.60;2.75;;;12.80;99.90;;;;;;4967116;28;20042;-69
2021/12/31 08:16:15;;;;;;;7.28;2.50;;;12.80;99.90;;;;;;4992759;28;20026;-69
2021/12/31 08:18:41;;;;;;;7.25;2.78;;;;;;;;;;4976014;28;20504;-69
2021/12/31 08:21:07;;;;;;;5.85;2.83;;;12.90;99.90;;;;;;4993568;28;20034;-70
2021/12/31 08:23:33;;;;;;;3.90;2.30;;;;;;;;;;4975911;28;20076;-70
2021/12/31 08:26:01;;;;;;;9.15;3.17;;;12.90;99.90;;;;;;4992244;28;20078;-70
2021/12/31 08:28:27;;;;;;;6.30;2.78;;;12.90;99.90;;;;;;4993750;28;20050;-69
2021/12/31 08:30:52;;;;;;;4.05;2.30;;;12.90;99.90;;;;;;4992045;28;20050;-67
2021/12/31 08:33:18;;;;;;;5.75;2.50;;;12.80;99.90;;;;;;4988650;28;20777;-67
2021/12/31 08:35:44;;;;;;;10.98;3.25;;;;;;;;;;4992658;28;20038;-67
2021/12/31 08:38:10;;;;;;;6.38;2.17;;;;;;;;;;4988825;28;20042;-68
2021/12/31 08:40:36;;;;;;;4.10;2.40;;;12.80;99.90;;;;;;4990695;28;20041;-68
2021/12/31 08:43:02;;;;;;;7.43;3.40;;;12.80;99.90;;;;;;4990593;28;20046;-68
2021/12/31 08:45:29;;;;;;;6.28;2.45;;;12.80;99.90;;;;;;4990844;28;20092;-68
2021/12/31 08:47:57;;;;;;;7.65;3.67;;;13.10;99.90;;;;;;4957119;28;20034;-67
2021/12/31 08:50:23;;;;;;;5.80;2.67;;;12.80;99.90;;;;;;4990868;28;20165;-67
2021/12/31 08:52:49;;;;;;;4.63;2.35;;;;;;;;;;4975494;28;20070;-67
2021/12/31 08:55:14;;;;;;;7.35;2.90;;;12.70;99.90;;;;;;4980601;28;20069;-67
2021/12/31 08:57:41;;;;;;;5.20;3.00;;;;;;;;;;4988996;28;20034;-66
2021/12/31 09:00:07;;;;;;;5.82;2.88;;;12.90;99.90;;;;;;4987928;28;20041;-67
2021/12/31 09:02:35;;;;;;;5.22;2.63;;;12.90;99.90;;;;;;4987883;28;20038;-68
2021/12/31 09:05:00;;;;;;;4.80;2.47;;;12.90;99.90;;;;;;4973748;28;20567;-68
2021/12/31 09:07:26;;;;;;;4.80;2.60;;;;;;;;;;4991194;28;20142;-67
2021/12/31 09:09:52;;;;;;;5.65;2.50;;;12.80;99.90;;;;;;4973384;28;20550;-67
2021/12/31 09:12:18;;;;;;;8.88;2.58;;;12.90;99.90;;;;;;4955969;28;20042;-67
2021/12/31 09:14:44;;;;;;;8.00;2.63;;;13.20;99.90;;;;;;4989834;28;20475;-67
2021/12/31 09:17:10;;;;;;;4.90;2.25;;;;;;;;;;4985708;28;20033;-67
2021/12/31 09:19:36;;;;;;;6.93;2.72;;;;;;;;;;4987122;28;20692;-67
2021/12/31 09:22:04;;;;;;;5.05;2.45;;;13.20;99.90;;;;;;4989257;28;20432;-68
2021/12/31 09:24:30;;;;;;;7.60;2.70;;;13.00;99.90;;;;;;4972597;28;20049;-68
2021/12/31 09:26:55;;;;;;;5.38;2.58;;;13.10;99.90;;;;;;4989226;28;20056;-70
2021/12/31 09:29:23;;;;;;;7.30;2.72;;;;;;;;;;4992048;28;20162;-66
2021/12/31 09:31:49;;;;;;;2.78;1.95;;;;;;;;;;4973015;28;20050;-68
2021/12/31 09:34:15;;;;;;;5.03;2.22;;;13.20;99.90;;;;;;4988872;28;20129;-68
2021/12/31 09:36:40;;;;;;;3.55;2.13;;;13.20;99.90;;;;;;4988063;28;20470;-68
2021/12/31 09:39:06;;;;;;;7.25;2.50;;;;;;;;;;4977426;28;20306;-66
2021/12/31 09:41:32;;;;;;;9.00;2.78;;;13.10;99.90;;;;;;4990560;28;20096;-67
2021/12/31 09:43:58;;;;;;;7.80;2.50;;;13.10;99.90;;;;;;4973053;28;20054;-67
2021/12/31 09:46:23;;;;;;;10.52;3.35;;;;;;;;;;4972877;28;20507;-66
2021/12/31 09:48:50;;;;;;;5.03;2.75;;;;;;;;;;4989231;28;20050;-68
2021/12/31 09:51:17;;;;;;;4.85;2.38;;;13.10;99.90;;;;;;4981122;28;20064;-67
2021/12/31 09:53:44;;;;;;;5.47;2.20;;;13.00;99.90;;;;;;4968392;28;20053;-66
2021/12/31 09:56:09;;;;;;;3.95;2.60;;;13.10;99.90;;;;;;4988329;28;20039;-67
2021/12/31 09:58:36;;;;;;;6.55;2.50;;;13.00;99.90;;;;;;4986908;28;20132;-68
2021/12/31 10:01:04;;;;;;;4.47;2.80;;;13.00;99.90;;;;;;4968200;28;20130;-66
2021/12/31 10:03:32;;;;;;;5.93;2.97;;;12.90;99.90;;;;;;4983360;28;20073;-68
2021/12/31 10:05:59;;;;;;;6.07;2.63;;;12.90;99.90;;;;;;4960933;28;20050;-67
2021/12/31 10:08:30;;;;;;;5.75;3.03;;;13.20;99.90;;;;;;4966823;28;20144;-67
2021/12/31 10:11:18;;;;;;;6.82;2.53;;;12.90;99.90;;;;;;4988272;28;20045;-68
2021/12/31 10:14:05;;;;;;;5.82;2.65;;;12.80;99.90;;;;;;4956544;28;20059;-67
2021/12/31 10:16:40;;;;;;;6.28;2.53;;;12.90;99.90;;;;;;4977523;28;20117;-67
2021/12/31 10:19:14;;;;;;;4.35;2.30;;;12.90;99.90;;;;;;4983268;28;20091;-68
2021/12/31 10:21:43;;;;;;;5.95;2.13;;;12.90;99.90;;;;;;4965166;28;20404;-68
2021/12/31 10:24:22;;;;;;;6.32;2.50;;;12.90;99.90;;;;;;4972166;28;20535;-68
2021/12/31 10:26:49;;;;;;;10.18;2.10;;;12.90;99.90;;;;;;4991213;28;20157;-68
2021/12/31 10:29:15;;;;;;;5.45;2.33;;;;;;;;;;4966116;28;20046;-68
2021/12/31 10:31:46;;;;;;;8.07;2.72;;;12.80;99.90;;;;;;4983945;28;20046;-66
2021/12/31 10:34:37;;;;;;;11.43;3.00;;;12.90;99.90;;;;;;4977387;28;20046;-68
2021/12/31 10:37:17;;;;;;;5.05;2.65;;;12.90;99.90;;;;;;4974166;28;20070;-68
2021/12/31 10:39:44;;;;;;;6.82;2.65;;;13.00;99.90;;;;;;4986308;28;20042;-68
2021/12/31 10:42:14;;;;;;;4.70;2.80;;;13.00;99.90;;;;;;4985184;28;20439;-67
2021/12/31 10:44:52;;;;;;;5.32;2.58;;;12.90;99.90;;;;;;4965463;28;20046;-67
2021/12/31 10:47:23;;;;;;;7.13;3.03;;;12.90;99.90;;;;;;4984805;28;20069;-69
2021/12/31 10:50:04;;;;;;;4.88;2.58;;;12.80;99.90;;;;;;4975597;28;20436;-68
2021/12/31 10:52:55;;;;;;;6.80;2.53;;;12.60;99.90;;;;;;4971598;28;20043;-68
2021/12/31 10:55:25;;;;;;;5.47;3.10;;;12.70;99.90;;;;;;4972441;28;20100;-66
2021/12/31 10:57:54;;;;;;;5.43;3.47;;;12.80;99.90;;;;;;4979980;28;20042;-67
2021/12/31 11:00:21;;;;;;;7.55;3.65;;;12.70;99.90;;;;;;4973963;28;20042;-66
2021/12/31 11:02:47;;;;;;;6.72;3.10;;;;;;;;;;4990947;28;20504;-68
2021/12/31 11:05:16;;;;;;;6.68;3.25;;;12.60;99.90;;;;;;4965468;28;20516;-66
2021/12/31 11:07:43;;;;;;;5.93;2.70;;;12.50;99.90;;;;;;4974835;28;20113;-66
2021/12/31 11:10:10;;;;;;;7.60;2.90;;;12.30;99.90;;;;;;4965648;28;20125;-67
2021/12/31 11:12:36;;;;;;;6.82;3.30;;;;;;;;;;4964594;28;20129;-67
2021/12/31 11:15:05;;;;;;;6.95;3.22;;;12.60;99.90;;;;;;4975418;28;20117;-66
2021/12/31 11:17:31;;;;;;;7.22;3.47;;;12.50;99.90;;;;;;4976202;28;20373;-66
2021/12/31 11:19:58;;;;;;;8.50;4.00;;;12.60;99.90;;;;;;4957980;28;20049;-67
2021/12/31 11:22:26;;;;;;;7.45;3.80;;;12.60;99.90;;;;;;4978102;28;20496;-68
2021/12/31 11:24:52;;;;;;;7.97;3.45;;;12.40;99.90;;;;;;4988713;28;20042;-69
2021/12/31 11:27:44;;;;;;;13.15;4.10;;;12.40;99.90;;;;;;4991525;28;20444;-72
2021/12/31 11:30:42;;;;;;;5.82;3.33;;;12.30;99.90;;;;;;4972297;28;20031;-69
2021/12/31 11:33:09;;;;;;;5.32;3.05;;;12.40;99.90;;;;;;4991386;28;20404;-71
2021/12/31 11:35:43;;;;;;;6.93;3.50;;;12.60;99.90;;;;;;4972956;28;20377;-71
2021/12/31 11:38:23;;;;;;;6.50;3.38;;;12.40;99.90;;;;;;4992516;28;20045;-71
2021/12/31 11:41:08;;;;;;;5.72;2.97;;;12.30;99.90;;;;;;4975776;28;20120;-73
2021/12/31 11:43:35;;;;;;;9.35;2.97;;;12.30;99.90;;;;;;4974854;28;20055;-72
2021/12/31 11:46:10;;;;;;;4.85;3.33;;;12.30;99.90;;;;;;4956887;28;20386;-72
2021/12/31 11:48:45;;;;;;;7.57;3.45;;;12.30;99.90;;;;;;4957166;28;20051;-73
2021/12/31 11:51:12;;;;;;;9.55;3.88;;;12.30;99.90;;;;;;4964173;28;20050;-69
2021/12/31 11:53:56;;;;;;;9.25;3.30;;;12.30;99.90;;;;;;4985514;28;20373;-68
2021/12/31 11:59:08;;;;;;;6.03;3.35;;;12.20;99.90;;;;;;4972195;28;20141;-69
2021/12/31 12:01:37;;;;;;;8.60;4.15;;;12.40;99.90;;;;;;4976120;28;20092;-71
2021/12/31 12:04:25;;;;;;;8.20;4.07;;;12.10;99.90;;;;;;4960560;28;20047;-71
2021/12/31 12:06:54;;;;;;;9.10;4.05;;;12.40;99.90;;;;;;4971730;28;20049;-71
2021/12/31 12:09:20;;;;;;;9.82;4.43;;;;;;;;;;4973226;28;20057;-72
2021/12/31 12:12:18;;;;;;;10.30;3.92;;;12.30;99.90;;;;;;4959098;28;20496;-68
2021/12/31 12:14:53;;;;;;;10.50;4.05;;;12.30;99.90;;;;;;4978705;28;20542;-68
2021/12/31 12:17:33;;;;;;;11.18;4.20;;;12.30;99.90;;;;;;4973874;28;20057;-65
2021/12/31 12:20:02;;;;;;;11.65;4.82;;;12.20;99.90;;;;;;4975184;28;20061;-69
2021/12/31 12:22:51;;;;;;;7.07;4.15;;;12.10;99.90;;;;;;4957252;28;20045;-68
2021/12/31 12:25:23;;;;;;;5.57;4.03;;;12.30;99.90;;;;;;4975468;28;20134;-68
2021/12/31 12:27:54;;;;;;;7.95;4.10;;;12.60;99.90;;;;;;4956915;28;20457;-67
2021/12/31 12:30:20;;;;;;;11.18;4.57;;;12.20;99.90;;;;;;4960597;28;20035;-71
2021/12/31 12:35:16;;;;;;;12.60;4.80;;;12.10;99.90;;;;;;4973863;28;20467;-67
2021/12/31 12:37:43;;;;;;;10.15;4.78;;;12.10;99.90;;;;;;4971967;28;20535;-69
2021/12/31 12:40:10;;;;;;;8.65;4.43;;;12.20;99.90;;;;;;4958058;28;20045;-70
2021/12/31 12:42:35;;;;;;;8.32;4.88;;;12.20;99.90;;;;;;4956094;28;20133;-68
2021/12/31 12:45:04;;;;;;;9.02;5.28;;;12.20;99.90;;;;;;4975040;28;20093;-67
2021/12/31 12:47:30;;;;;;;8.77;4.05;;;12.30;99.90;;;;;;4975264;28;20118;-67
2021/12/31 12:50:00;;;;;;;8.20;3.85;;;12.20;99.90;;;;;;4969600;28;20525;-68
2021/12/31 12:52:27;;;;;;;6.13;3.30;;;12.20;99.90;;;;;;4972891;28;20113;-68
2021/12/31 12:55:13;;;;;;;10.10;4.05;;;12.30;99.90;;;;;;4955579;28;20058;-66
2021/12/31 12:57:39;;;;;;;6.97;3.05;;;12.30;99.90;;;;;;4981690;28;20034;-69
2021/12/31 13:00:07;;;;;;;8.52;4.40;;;12.10;99.90;;;;;;4960808;28;20038;-65
2021/12/31 13:02:40;;;;;;;6.05;2.83;;;12.30;99.90;;;;;;4977790;28;20081;-67
2021/12/31 13:05:14;;;;;;;5.88;3.38;;;12.20;99.90;;;;;;4979435;28;20047;-66
2021/12/31 13:07:52;;;;;;;4.63;2.40;;;12.30;99.90;;;;;;4982974;28;20413;-66
2021/12/31 13:10:21;;;;;;;3.97;2.67;;;12.20;99.90;;;;;;4978139;28;20077;-65
2021/12/31 13:12:47;;;;;;;5.68;3.00;;;;;;;;;;4950940;28;20113;-69
2021/12/31 13:15:13;;;;;;;10.35;3.22;;;;;;;;;;4958269;28;20043;-68